Markstay, Canada
Current Conditions -  °F | °C
As of 5:00 PM on Thursday 23 Oct 2014 (Local Time) from CYSB Reporting Station
Few Clouds Few Clouds  
Wind Chill: 54°   Ceiling: Unl
Heat Index: 54°   Visibility: 20mi
Dew Point: 36°   Wind: 3mph
Humidity: 51%   Direction: 250°WSW
Pressure: 30.1"   Gusts: NA
Location:  46.48°N, 80.53°W
Report Text: CYSB 232100Z 25003KT 180V250 20SM FEW200 12/02 A3010 RMK CI1 SLP204
Loading
Personal Weather Stations






























Interactive Weather Map
Tropical Storm Tracking
New forecast layout! Learn more

10-Day Weather Forecast

Advertisements
Track Severe Weather on mobile